Time;durP1;ratioP1;P1;durP2;ratioP2;P2;SDS_P1;SDS_P2;PMS_P1;PMS_P2;Temp;Humidity;BMP_temperature;BMP_pressure;BME280_temperature;BME280_humidity;BME280_pressure;Samples;Min_cycle;Max_cycle;Signal;HPM_P1;HPM_P2
2023/03/06 00:01:47;;;;;;;5.53;0.60;;;1.70;99.90;;;;;;5073229;28;20097;-23
2023/03/06 00:04:14;;;;;;;4.07;0.53;;;1.70;99.90;;;;;;5072934;28;20131;-23
2023/03/06 00:06:40;;;;;;;1.57;0.37;;;1.50;99.90;;;;;;5072815;28;20044;-22
2023/03/06 00:09:06;;;;;;;1.80;0.20;;;1.10;99.90;;;;;;5074089;28;20113;-23
2023/03/06 00:11:32;;;;;;;4.10;0.70;;;1.70;99.90;;;;;;5072688;28;20048;-23
2023/03/06 00:13:58;;;;;;;0.30;0.10;;;1.80;99.90;;;;;;5074029;28;20543;-23
2023/03/06 00:16:24;;;;;;;1.33;0.40;;;1.80;99.90;;;;;;5072641;28;20060;-24
2023/03/06 00:18:50;;;;;;;2.93;0.20;;;1.10;99.90;;;;;;5056186;28;20044;-23
2023/03/06 00:21:16;;;;;;;2.67;0.30;;;1.60;99.90;;;;;;5074711;28;20040;-23
2023/03/06 00:23:42;;;;;;;1.63;0.33;;;1.80;99.90;;;;;;5073825;28;20512;-23
2023/03/06 00:26:08;;;;;;;3.47;0.40;;;1.20;99.90;;;;;;5073844;28;20048;-23
2023/03/06 00:28:35;;;;;;;2.83;0.30;;;1.20;99.90;;;;;;5073404;28;20050;-23
2023/03/06 00:31:02;;;;;;;1.63;0.50;;;1.60;99.90;;;;;;5074012;28;20076;-23
2023/03/06 00:33:28;;;;;;;3.23;0.47;;;1.50;99.90;;;;;;5073341;28;20045;-23
2023/03/06 00:35:54;;;;;;;2.03;0.33;;;1.30;99.90;;;;;;5073748;28;20516;-22
2023/03/06 00:38:20;;;;;;;2.70;0.93;;;1.80;99.90;;;;;;5072515;28;20476;-23
2023/03/06 00:40:45;;;;;;;6.23;1.80;;;1.30;99.90;;;;;;5072977;28;20075;-23
2023/03/06 00:43:12;;;;;;;4.80;0.67;;;1.90;99.90;;;;;;5073665;28;20441;-26
2023/03/06 00:45:37;;;;;;;3.20;0.77;;;1.10;99.90;;;;;;5074188;28;20052;-27
2023/03/06 00:48:04;;;;;;;5.13;1.00;;;1.30;99.90;;;;;;5055971;28;20056;-29
2023/03/06 00:50:29;;;;;;;2.03;0.80;;;1.30;99.90;;;;;;5072284;28;20094;-29
2023/03/06 00:52:55;;;;;;;3.43;1.10;;;1.00;99.90;;;;;;5055912;28;20052;-28
2023/03/06 00:55:21;;;;;;;2.57;0.63;;;1.40;99.90;;;;;;5073619;28;20110;-30
2023/03/06 00:57:47;;;;;;;3.03;1.13;;;1.20;99.90;;;;;;5055815;28;20040;-29
2023/03/06 01:00:14;;;;;;;3.80;1.20;;;1.00;99.90;;;;;;5074061;28;20051;-29
2023/03/06 01:02:40;;;;;;;4.47;1.30;;;1.80;99.90;;;;;;5073389;28;20051;-28
2023/03/06 01:05:07;;;;;;;3.37;1.50;;;1.70;99.90;;;;;;5073423;28;20055;-28
2023/03/06 01:07:35;;;;;;;5.10;1.23;;;1.20;99.90;;;;;;5077032;28;20479;-29
2023/03/06 01:10:02;;;;;;;5.87;1.57;;;1.10;99.90;;;;;;5078235;28;20051;-27
2023/03/06 01:12:28;;;;;;;3.00;1.10;;;1.20;99.90;;;;;;5077463;28;20048;-27
2023/03/06 01:14:54;;;;;;;6.57;1.97;;;1.60;99.90;;;;;;5076196;28;20060;-27
2023/03/06 01:17:20;;;;;;;2.73;1.13;;;1.30;99.90;;;;;;5076765;28;20512;-27
2023/03/06 01:19:45;;;;;;;5.27;2.53;;;2.00;99.90;;;;;;5076611;28;20094;-27
2023/03/06 01:22:11;;;;;;;4.90;1.63;;;1.80;99.90;;;;;;5076071;28;20389;-28
2023/03/06 01:24:37;;;;;;;3.70;2.00;;;1.40;99.90;;;;;;5076025;28;20052;-28
2023/03/06 01:27:03;;;;;;;5.27;2.13;;;2.10;99.90;;;;;;5077017;28;20048;-27
2023/03/06 01:29:29;;;;;;;4.17;1.80;;;2.10;99.90;;;;;;5059633;28;20059;-27
2023/03/06 01:31:55;;;;;;;7.87;1.73;;;1.60;99.90;;;;;;5076942;28;20033;-27
2023/03/06 01:34:21;;;;;;;4.43;2.00;;;2.20;99.90;;;;;;5075720;28;20052;-27
2023/03/06 01:36:46;;;;;;;6.07;1.60;;;2.00;99.90;;;;;;5076796;28;20124;-27
2023/03/06 01:39:12;;;;;;;5.73;1.97;;;2.10;99.90;;;;;;5076003;28;20090;-27
2023/03/06 01:41:38;;;;;;;6.07;1.50;;;1.60;99.90;;;;;;5077386;28;20504;-27
2023/03/06 01:44:04;;;;;;;4.43;1.73;;;2.10;99.90;;;;;;5076823;28;20040;-28
2023/03/06 01:46:41;;;;;;;3.43;1.33;;;2.20;99.90;;;;;;5076074;28;20483;-26
2023/03/06 01:49:13;;;;;;;6.50;2.07;;;1.60;99.90;;;;;;5076719;28;20052;-27
2023/03/06 01:51:48;;;;;;;3.10;1.17;;;1.70;99.90;;;;;;5077219;28;20158;-27
2023/03/06 01:54:24;;;;;;;4.13;0.97;;;2.20;99.90;;;;;;5076993;28;20055;-27
2023/03/06 01:56:54;;;;;;;2.90;0.60;;;2.10;99.90;;;;;;5075646;28;20060;-28
2023/03/06 01:59:22;;;;;;;2.03;0.90;;;2.00;99.90;;;;;;5076578;28;20482;-29
2023/03/06 02:01:49;;;;;;;1.57;0.40;;;1.90;99.90;;;;;;5075287;28;20107;-28
2023/03/06 02:04:16;;;;;;;1.40;0.80;;;1.80;99.90;;;;;;5075284;28;20048;-29
2023/03/06 02:06:42;;;;;;;1.60;0.70;;;1.80;99.90;;;;;;5075179;28;20094;-29
2023/03/06 02:09:10;;;;;;;2.70;0.80;;;1.10;99.90;;;;;;5058635;28;20498;-28
2023/03/06 02:11:37;;;;;;;4.23;1.10;;;1.50;99.90;;;;;;5074756;28;20372;-29
2023/03/06 02:14:03;;;;;;;2.50;0.57;;;1.50;99.90;;;;;;5075615;28;20102;-29
2023/03/06 02:16:31;;;;;;;1.13;0.80;;;1.00;99.90;;;;;;5076402;28;20060;-32
2023/03/06 02:19:00;;;;;;;1.57;0.97;;;1.50;99.90;;;;;;5076196;28;20098;-30
2023/03/06 02:21:33;;;;;;;2.87;1.30;;;0.70;99.90;;;;;;5076159;28;20098;-31
2023/03/06 02:24:10;;;;;;;2.10;1.08;;;1.40;99.90;;;;;;5076456;28;20048;-30
2023/03/06 02:26:37;;;;;;;2.50;1.37;;;0.80;99.90;;;;;;5076161;28;20078;-31
2023/03/06 02:29:03;;;;;;;3.80;1.53;;;0.80;99.90;;;;;;5075995;28;20470;-31
2023/03/06 02:31:31;;;;;;;2.07;1.03;;;0.80;99.90;;;;;;5075829;28;20051;-30
2023/03/06 02:34:15;;;;;;;3.23;1.20;;;1.00;99.90;;;;;;5075935;28;20093;-29
2023/03/06 02:36:47;;;;;;;2.17;0.90;;;1.30;99.90;;;;;;5057924;28;20045;-29
2023/03/06 02:39:14;;;;;;;2.70;0.90;;;1.00;99.90;;;;;;5075482;28;20387;-29
2023/03/06 02:41:40;;;;;;;1.90;0.93;;;1.40;99.90;;;;;;5075762;28;20040;-29
2023/03/06 02:44:05;;;;;;;3.67;1.20;;;1.10;99.90;;;;;;5058420;28;20043;-29
2023/03/06 02:46:31;;;;;;;1.67;1.03;;;1.40;99.90;;;;;;5074540;28;20048;-28
2023/03/06 02:48:57;;;;;;;2.70;1.03;;;0.80;99.90;;;;;;5075670;28;20471;-29
2023/03/06 02:51:23;;;;;;;2.70;1.17;;;1.40;99.90;;;;;;5057619;28;20036;-28
2023/03/06 02:53:49;;;;;;;2.80;1.00;;;1.20;99.90;;;;;;5074272;28;20045;-28
2023/03/06 02:56:15;;;;;;;1.90;0.80;;;1.40;99.90;;;;;;5074516;28;20044;-29
2023/03/06 02:58:41;;;;;;;1.40;0.90;;;0.80;99.90;;;;;;5075433;28;20074;-30
2023/03/06 03:01:07;;;;;;;2.73;1.17;;;0.80;99.90;;;;;;5058055;28;20043;-29
2023/03/06 03:03:33;;;;;;;2.30;1.10;;;0.60;99.90;;;;;;5057565;28;20044;-30
2023/03/06 03:06:00;;;;;;;4.40;1.10;;;0.60;99.90;;;;;;5075208;28;20087;-29
2023/03/06 03:08:27;;;;;;;4.73;1.17;;;0.70;99.90;;;;;;5075262;28;20040;-29
2023/03/06 03:10:54;;;;;;;4.33;1.00;;;1.00;99.90;;;;;;5074763;28;20036;-29
2023/03/06 03:13:19;;;;;;;2.80;1.20;;;0.60;99.90;;;;;;5073666;28;20401;-29
2023/03/06 03:15:55;;;;;;;3.10;1.00;;;0.60;99.90;;;;;;5074684;28;20135;-29
2023/03/06 03:18:23;;;;;;;3.60;1.27;;;0.90;99.90;;;;;;5074104;28;20478;-28
2023/03/06 03:20:49;;;;;;;2.30;1.10;;;0.70;99.90;;;;;;5074961;28;20048;-29
2023/03/06 03:23:15;;;;;;;3.67;1.30;;;0.30;99.90;;;;;;5073749;28;20053;-30
2023/03/06 03:25:41;;;;;;;2.07;1.07;;;0.00;99.90;;;;;;5057148;28;20052;-29
2023/03/06 03:28:07;;;;;;;3.87;1.10;;;0.60;99.90;;;;;;5073379;28;20154;-30
2023/03/06 03:30:32;;;;;;;4.17;1.13;;;0.10;99.90;;;;;;5074869;28;20083;-29
2023/03/06 03:32:58;;;;;;;4.33;1.30;;;-0.20;99.90;;;;;;5074615;28;20386;-30
2023/03/06 03:35:24;;;;;;;3.47;1.40;;;-0.30;99.90;;;;;;5075259;28;20052;-29
2023/03/06 03:37:51;;;;;;;5.00;1.20;;;0.00;99.90;;;;;;5074667;28;20114;-31
2023/03/06 03:40:17;;;;;;;3.53;1.53;;;0.40;99.90;;;;;;5074564;28;20471;-29
2023/03/06 03:42:43;;;;;;;3.57;1.43;;;-0.10;99.90;;;;;;5075353;28;20102;-29
2023/03/06 03:45:09;;;;;;;4.03;1.67;;;0.00;99.90;;;;;;5073538;28;20398;-29
2023/03/06 03:47:35;;;;;;;2.90;1.37;;;-0.40;99.90;;;;;;5057295;28;20051;-30
2023/03/06 03:50:01;;;;;;;5.27;1.60;;;-0.50;99.90;;;;;;5073877;28;20439;-30
2023/03/06 03:52:27;;;;;;;4.00;1.37;;;-0.20;99.90;;;;;;5056647;28;20123;-29
2023/03/06 03:54:53;;;;;;;3.83;1.60;;;-0.20;99.90;;;;;;5056782;28;20475;-29
2023/03/06 03:57:19;;;;;;;3.00;1.53;;;0.00;99.90;;;;;;5073034;28;20086;-29
2023/03/06 03:59:44;;;;;;;3.17;1.40;;;-0.40;99.90;;;;;;5073282;28;20080;-28
2023/03/06 04:02:10;;;;;;;3.40;1.70;;;-0.50;99.90;;;;;;5074217;28;20060;-28
2023/03/06 04:04:36;;;;;;;3.57;1.43;;;0.00;99.90;;;;;;5072941;28;20051;-29
2023/03/06 04:07:03;;;;;;;3.30;1.53;;;-0.60;99.90;;;;;;5074199;28;20092;-29
2023/03/06 04:09:29;;;;;;;4.83;1.60;;;-0.60;99.90;;;;;;5072923;28;20149;-28
2023/03/06 04:11:55;;;;;;;7.10;1.93;;;-0.50;99.90;;;;;;5074001;28;20045;-28
2023/03/06 04:14:21;;;;;;;5.80;2.30;;;-0.70;99.90;;;;;;5072614;28;20502;-28
2023/03/06 04:16:46;;;;;;;3.37;1.80;;;-0.20;99.90;;;;;;5056185;28;20064;-28
2023/03/06 04:19:12;;;;;;;7.10;1.87;;;-0.20;99.90;;;;;;5072798;28;20464;-28
2023/03/06 04:21:38;;;;;;;3.70;1.80;;;-0.70;99.90;;;;;;5072770;28;20040;-27
2023/03/06 04:24:04;;;;;;;5.37;2.20;;;-0.10;99.90;;;;;;5074400;28;20401;-28
2023/03/06 04:26:30;;;;;;;6.00;1.77;;;-0.70;99.90;;;;;;5073859;28;20044;-28
2023/03/06 04:28:57;;;;;;;4.97;2.00;;;-0.70;99.90;;;;;;5056707;28;20102;-27
2023/03/06 04:31:23;;;;;;;4.83;1.80;;;-0.10;99.90;;;;;;5056924;28;20049;-27
2023/03/06 04:33:49;;;;;;;8.03;2.03;;;0.10;99.90;;;;;;5073790;28;20086;-27
2023/03/06 04:36:32;;;;;;;3.87;2.13;;;-0.70;99.90;;;;;;5072581;28;20048;-26
2023/03/06 04:38:58;;;;;;;7.63;1.60;;;-0.80;99.90;;;;;;5074097;28;20052;-26
2023/03/06 04:41:24;;;;;;;4.40;1.83;;;-0.20;99.90;;;;;;5072754;28;20051;-26
2023/03/06 04:43:50;;;;;;;3.80;1.77;;;-0.90;99.90;;;;;;5073644;28;20127;-26
2023/03/06 04:46:16;;;;;;;5.50;1.70;;;-0.30;99.90;;;;;;5073603;28;20048;-26
2023/03/06 04:48:42;;;;;;;5.50;2.07;;;-0.90;99.90;;;;;;5074144;28;20044;-26
2023/03/06 04:51:11;;;;;;;4.90;2.20;;;-0.40;99.90;;;;;;5072308;28;20093;-26
2023/03/06 04:53:36;;;;;;;7.37;2.50;;;-0.30;99.90;;;;;;5073520;28;20109;-25
2023/03/06 04:56:02;;;;;;;4.10;2.00;;;-0.50;99.90;;;;;;5072382;28;20041;-25
2023/03/06 04:58:28;;;;;;;9.93;2.80;;;-0.20;99.90;;;;;;5072270;28;20048;-25
2023/03/06 05:00:54;;;;;;;5.13;2.47;;;-0.30;99.90;;;;;;5072365;28;20052;-25
2023/03/06 05:03:19;;;;;;;6.20;2.13;;;-0.50;99.90;;;;;;5072348;28;20052;-25
2023/03/06 05:05:45;;;;;;;8.33;3.00;;;-0.40;99.90;;;;;;5072239;28;20052;-25
2023/03/06 05:08:14;;;;;;;8.90;2.50;;;-0.10;99.90;;;;;;5073702;28;20074;-25
2023/03/06 05:10:41;;;;;;;6.47;2.60;;;-0.60;99.90;;;;;;5072280;28;20060;-25
2023/03/06 05:13:07;;;;;;;6.47;3.23;;;-0.20;99.90;;;;;;5073954;28;20048;-24
2023/03/06 05:15:33;;;;;;;8.50;3.10;;;-0.60;99.90;;;;;;5071785;28;20139;-24
2023/03/06 05:17:59;;;;;;;8.17;2.87;;;-0.20;99.90;;;;;;5073171;28;20139;-24
2023/03/06 05:20:25;;;;;;;6.77;2.83;;;-0.20;99.90;;;;;;5073545;28;20086;-24
2023/03/06 05:22:50;;;;;;;5.07;2.80;;;-0.30;99.90;;;;;;5073267;28;20051;-23
2023/03/06 05:25:16;;;;;;;10.53;3.37;;;-0.80;99.90;;;;;;5072071;28;20453;-24
2023/03/06 05:27:42;;;;;;;6.47;3.30;;;-0.90;99.90;;;;;;5073179;28;20127;-23
2023/03/06 05:30:12;;;;;;;6.77;3.03;;;-0.90;99.90;;;;;;5073120;28;20087;-23
2023/03/06 05:32:38;;;;;;;6.07;3.13;;;-0.50;99.90;;;;;;5073167;28;20044;-23
2023/03/06 05:35:05;;;;;;;7.30;2.90;;;-0.60;99.90;;;;;;5073144;28;20071;-23
2023/03/06 05:37:30;;;;;;;8.80;3.67;;;-0.30;99.90;;;;;;5073030;28;20040;-23
2023/03/06 05:39:56;;;;;;;8.23;3.23;;;-0.40;99.90;;;;;;5073238;28;20426;-22
2023/03/06 05:42:22;;;;;;;8.27;3.13;;;-0.80;99.90;;;;;;5071728;28;20044;-22
2023/03/06 05:44:48;;;;;;;7.10;2.80;;;-0.80;99.90;;;;;;5073458;28;20056;-22
2023/03/06 05:47:14;;;;;;;5.00;2.90;;;-1.00;99.90;;;;;;5055088;28;20060;-22
2023/03/06 05:49:40;;;;;;;7.83;3.17;;;-1.20;99.90;;;;;;5071701;28;20048;-22
2023/03/06 05:52:07;;;;;;;11.87;3.30;;;-0.60;99.90;;;;;;5073771;28;20045;-22
2023/03/06 05:54:34;;;;;;;6.97;2.93;;;-1.00;99.90;;;;;;5076450;28;20041;-21
2023/03/06 05:57:00;;;;;;;8.57;3.40;;;-0.80;99.90;;;;;;5077287;28;20089;-22
2023/03/06 05:59:27;;;;;;;9.00;3.03;;;-1.40;99.90;;;;;;5076426;28;20049;-21
2023/03/06 06:01:56;;;;;;;5.57;2.43;;;-1.10;99.90;;;;;;5076369;28;20123;-21
2023/03/06 06:04:23;;;;;;;9.93;3.77;;;-1.20;99.90;;;;;;5076390;28;20044;-21
2023/03/06 06:06:58;;;;;;;9.33;3.97;;;-0.80;99.90;;;;;;5076297;28;20178;-21
2023/03/06 06:09:24;;;;;;;10.07;3.73;;;-0.90;99.90;;;;;;5076387;28;20047;-21
2023/03/06 06:11:52;;;;;;;9.80;4.00;;;-1.10;99.90;;;;;;5076236;28;20044;-21
2023/03/06 06:14:18;;;;;;;8.83;3.87;;;-1.00;99.90;;;;;;5058611;28;20139;-21
2023/03/06 06:16:44;;;;;;;33.20;7.93;;;-1.50;99.90;;;;;;5075914;28;20131;-21
2023/03/06 06:19:14;;;;;;;226.23;17.23;;;-1.30;99.90;;;;;;5075122;28;20050;-21
2023/03/06 06:21:40;;;;;;;223.13;10.93;;;-1.60;99.90;;;;;;5076238;28;20135;-21
2023/03/06 06:24:06;;;;;;;77.07;7.90;;;-1.10;99.90;;;;;;5076122;28;20088;-20
2023/03/06 06:26:31;;;;;;;92.17;6.77;;;-1.20;99.90;;;;;;5076630;28;20123;-20
2023/03/06 06:28:57;;;;;;;23.10;3.87;;;-1.10;99.90;;;;;;5076121;28;20044;-21
2023/03/06 06:31:23;;;;;;;7.70;3.17;;;-1.50;99.90;;;;;;5075550;28;20041;-20
2023/03/06 06:33:49;;;;;;;10.93;3.97;;;-1.50;99.90;;;;;;5075961;28;20048;-21
2023/03/06 06:36:21;;;;;;;9.10;3.83;;;-1.80;99.90;;;;;;5074751;28;20094;-21
2023/03/06 06:38:47;;;;;;;7.87;3.80;;;-1.50;99.90;;;;;;5076092;28;20044;-21
2023/03/06 06:41:13;;;;;;;9.47;4.10;;;-1.60;99.90;;;;;;5074822;28;20052;-21
2023/03/06 06:43:39;;;;;;;13.60;4.20;;;-1.00;99.90;;;;;;5074495;28;20082;-21
2023/03/06 06:46:05;;;;;;;10.97;5.33;;;-1.70;99.90;;;;;;5074469;28;20105;-21
2023/03/06 06:48:30;;;;;;;27.87;8.13;;;-1.60;99.90;;;;;;5075878;28;20086;-21
2023/03/06 06:50:57;;;;;;;32.40;9.20;;;-1.70;99.90;;;;;;5075601;28;20044;-21
2023/03/06 06:53:23;;;;;;;91.73;8.90;;;-1.60;99.90;;;;;;5074626;28;20048;-21
2023/03/06 06:55:49;;;;;;;30.67;8.50;;;-1.10;99.90;;;;;;5074244;28;20048;-20
2023/03/06 06:58:15;;;;;;;40.20;6.83;;;-1.70;99.90;;;;;;5075489;28;20127;-21
2023/03/06 07:00:41;;;;;;;143.30;11.97;;;-1.10;99.90;;;;;;5075463;28;20466;-21
2023/03/06 07:03:07;;;;;;;108.40;11.33;;;-1.20;99.90;;;;;;5074866;28;20049;-21
2023/03/06 07:05:33;;;;;;;70.47;10.60;;;-1.70;99.90;;;;;;5074748;28;20552;-20
2023/03/06 07:07:59;;;;;;;33.97;10.37;;;-1.60;99.90;;;;;;5075264;28;20052;-21
2023/03/06 07:10:25;;;;;;;23.50;10.97;;;-1.30;99.90;;;;;;5075151;28;20044;-21
2023/03/06 07:12:51;;;;;;;24.17;13.87;;;-1.90;99.90;;;;;;5074020;28;20542;-21
2023/03/06 07:15:17;;;;;;;17.60;9.03;;;-1.20;99.90;;;;;;5074852;28;20560;-21
2023/03/06 07:17:43;;;;;;;20.57;9.73;;;-1.60;99.90;;;;;;5075050;28;20044;-21
2023/03/06 07:20:09;;;;;;;17.23;9.43;;;-0.80;99.90;;;;;;5075290;28;20198;-21
2023/03/06 07:22:35;;;;;;;13.23;7.30;;;-0.60;99.90;;;;;;5074360;28;20052;-21
2023/03/06 07:25:03;;;;;;;14.83;7.87;;;-1.00;99.90;;;;;;5073697;28;20054;-21
2023/03/06 07:27:28;;;;;;;17.07;9.07;;;-0.90;99.90;;;;;;5075194;28;20075;-21
2023/03/06 07:29:54;;;;;;;16.17;8.23;;;-0.10;99.90;;;;;;5075125;28;20588;-22
2023/03/06 07:32:20;;;;;;;18.07;8.97;;;-0.70;99.90;;;;;;5074808;28;20113;-22
2023/03/06 07:34:46;;;;;;;10.13;6.93;;;-0.10;99.90;;;;;;5074419;28;20567;-22
2023/03/06 07:37:12;;;;;;;14.20;7.97;;;-0.30;99.90;;;;;;5074378;28;20490;-23
2023/03/06 07:39:38;;;;;;;12.70;8.43;;;0.50;99.90;;;;;;5074630;28;20084;-23
2023/03/06 07:42:06;;;;;;;14.03;7.77;;;0.30;99.90;;;;;;5073689;28;20037;-23
2023/03/06 07:44:36;;;;;;;17.03;8.20;;;-0.10;99.90;;;;;;5074511;28;20101;-23
2023/03/06 07:47:03;;;;;;;14.47;6.90;;;0.60;99.90;;;;;;5074558;28;20040;-23
2023/03/06 07:49:30;;;;;;;16.80;7.70;;;0.20;99.90;;;;;;5074422;28;20060;-24
2023/03/06 07:51:57;;;;;;;10.93;6.87;;;0.50;99.90;;;;;;5074540;28;20050;-24
2023/03/06 07:54:24;;;;;;;9.17;5.57;;;0.10;99.90;;;;;;5074332;28;20479;-24
2023/03/06 07:56:51;;;;;;;16.37;6.00;;;0.70;99.90;;;;;;5074036;28;20486;-24
2023/03/06 07:59:16;;;;;;;9.63;5.10;;;0.80;99.90;;;;;;5074318;28;20044;-25
2023/03/06 08:01:42;;;;;;;10.57;5.20;;;1.00;99.90;;;;;;5075072;28;20051;-26
2023/03/06 08:04:08;;;;;;;11.67;5.97;;;1.10;99.90;;;;;;5074219;28;20476;-26
2023/03/06 08:06:34;;;;;;;10.77;5.40;;;0.60;99.90;;;;;;5073117;28;20051;-27
2023/03/06 08:08:59;;;;;;;12.20;5.63;;;0.60;99.90;;;;;;5074690;28;20098;-28
2023/03/06 08:11:27;;;;;;;10.67;5.53;;;1.30;99.90;;;;;;5074006;28;20036;-30
2023/03/06 08:13:53;;;;;;;13.63;6.43;;;0.70;99.90;;;;;;5074867;28;20041;-29
2023/03/06 08:16:22;;;;;;;12.67;5.43;;;0.80;99.90;;;;;;5073960;28;20049;-30
2023/03/06 08:18:48;;;;;;;11.87;5.40;;;1.20;99.90;;;;;;5072975;28;20040;-30
2023/03/06 08:21:16;;;;;;;11.97;5.43;;;0.90;99.90;;;;;;5073942;28;20094;-30
2023/03/06 08:23:43;;;;;;;7.97;5.13;;;1.60;99.90;;;;;;5074488;28;20059;-30
2023/03/06 08:26:25;;;;;;;11.30;5.33;;;1.00;99.90;;;;;;5073845;28;20135;-31
2023/03/06 08:28:52;;;;;;;9.47;5.07;;;1.60;99.90;;;;;;5073897;28;20045;-31
2023/03/06 08:31:30;;;;;;;8.47;3.87;;;1.10;99.90;;;;;;5072645;28;20656;-31
2023/03/06 08:33:59;;;;;;;11.67;4.43;;;1.60;99.90;;;;;;5072593;28;20106;-30
2023/03/06 08:36:25;;;;;;;9.63;4.07;;;1.00;99.90;;;;;;5073747;28;20044;-31
2023/03/06 08:38:51;;;;;;;11.53;4.50;;;1.80;99.90;;;;;;5055911;28;20534;-30
2023/03/06 08:41:17;;;;;;;8.10;4.20;;;1.10;99.90;;;;;;5055936;28;20044;-30
2023/03/06 08:43:43;;;;;;;10.33;4.00;;;1.90;99.90;;;;;;5055992;28;20052;-30
2023/03/06 08:46:09;;;;;;;7.13;3.50;;;1.30;99.90;;;;;;5074206;28;20049;-31
2023/03/06 08:48:35;;;;;;;7.00;3.47;;;2.20;99.90;;;;;;5056673;28;20044;-29
2023/03/06 08:51:01;;;;;;;8.70;2.73;;;2.10;99.90;;;;;;5073482;28;20390;-30
2023/03/06 08:53:27;;;;;;;11.53;3.40;;;2.00;99.90;;;;;;5073570;28;20123;-31
2023/03/06 08:55:52;;;;;;;7.47;2.97;;;2.00;99.90;;;;;;5040180;28;20556;-29
2023/03/06 08:58:18;;;;;;;6.73;2.53;;;2.50;99.90;;;;;;5039242;28;20044;-29
2023/03/06 09:00:44;;;;;;;7.53;2.40;;;2.10;99.90;;;;;;5073540;28;20078;-29
2023/03/06 09:03:10;;;;;;;5.57;2.30;;;2.40;99.90;;;;;;5072296;28;20091;-29
2023/03/06 09:05:38;;;;;;;5.03;1.43;;;2.50;99.90;;;;;;5072149;28;20376;-29
2023/03/06 09:08:04;;;;;;;6.23;1.50;;;2.90;99.90;;;;;;5073496;28;20166;-29
2023/03/06 09:10:29;;;;;;;8.23;2.13;;;3.10;99.90;;;;;;5073355;28;20147;-29
2023/03/06 09:12:55;;;;;;;3.03;1.40;;;3.20;99.90;;;;;;5073366;28;20045;-28
2023/03/06 09:15:22;;;;;;;3.63;1.20;;;3.10;99.90;;;;;;5072470;28;20082;-28
2023/03/06 09:17:49;;;;;;;9.53;1.43;;;3.30;99.90;;;;;;5074541;28;20056;-28
2023/03/06 09:20:15;;;;;;;3.67;1.50;;;3.50;99.90;;;;;;5072909;28;20052;-27
2023/03/06 09:22:45;;;;;;;4.68;1.20;;;3.90;99.90;;;;;;5073289;28;20041;-27
2023/03/06 09:25:19;;;;;;;4.13;1.23;;;3.50;99.90;;;;;;5073280;28;20059;-27
2023/03/06 09:27:48;;;;;;;5.10;0.95;;;3.90;99.90;;;;;;5074566;28;20045;-28
2023/03/06 09:30:14;;;;;;;6.30;1.10;;;4.10;99.90;;;;;;5077069;28;20101;-27
2023/03/06 09:32:40;;;;;;;10.20;0.90;;;4.70;99.90;;;;;;5077111;28;20048;-27
2023/03/06 09:35:07;;;;;;;4.35;0.70;;;5.50;99.90;;;;;;5059240;28;20080;-27
2023/03/06 09:37:32;;;;;;;6.68;0.85;;;5.90;99.90;;;;;;5077039;28;20044;-27
2023/03/06 09:39:58;;;;;;;1.25;0.28;;;6.30;99.90;;;;;;5076973;28;20044;-27
2023/03/06 09:42:26;;;;;;;3.15;0.38;;;7.10;99.90;;;;;;5076941;28;20052;-27
2023/03/06 09:45:00;;;;;;;3.53;0.38;;;7.70;99.90;;;;;;5059282;28;20049;-26
2023/03/06 09:48:05;;;;;;;2.13;0.25;;;7.80;99.90;;;;;;5077349;28;20044;-26
2023/03/06 09:50:50;;;;;;;5.82;0.60;;;8.10;99.90;;;;;;5077014;28;20044;-26
2023/03/06 09:53:16;;;;;;;5.43;0.60;;;7.80;99.90;;;;;;5076791;28;20047;-26
2023/03/06 09:55:47;;;;;;;4.43;1.10;;;7.40;99.90;;;;;;5076687;28;20040;-25
2023/03/06 09:58:19;;;;;;;2.70;0.50;;;7.60;99.90;;;;;;5076938;28;20045;-25
2023/03/06 10:01:00;;;;;;;1.65;0.40;;;7.30;99.90;;;;;;5076595;28;20036;-24
2023/03/06 10:03:38;;;;;;;4.00;0.40;;;7.20;99.90;;;;;;5076461;28;20071;-24
2023/03/06 10:06:22;;;;;;;4.75;0.30;;;7.00;99.90;;;;;;5076124;28;20052;-24
2023/03/06 10:08:59;;;;;;;2.83;0.32;;;7.30;99.90;;;;;;5058792;28;20052;-24
2023/03/06 10:11:42;;;;;;;4.63;0.30;;;7.90;99.90;;;;;;5076342;28;20074;-24
2023/03/06 10:14:35;;;;;;;2.08;0.28;;;8.60;99.90;;;;;;5076999;28;20419;-24
2023/03/06 10:17:02;;;;;;;3.85;0.30;;;8.80;99.90;;;;;;5075603;28;20053;-24
2023/03/06 10:19:34;;;;;;;4.57;0.10;;;8.20;99.90;;;;;;5076256;28;20052;-23
2023/03/06 10:22:12;;;;;;;2.85;0.40;;;8.50;99.90;;;;;;5076525;28;20048;-23
2023/03/06 10:25:03;;;;;;;2.92;0.43;;;8.40;99.90;;;;;;5075656;28;20471;-23
2023/03/06 10:27:48;;;;;;;2.95;0.38;;;7.60;99.90;;;;;;5076994;28;20091;-23
2023/03/06 10:30:19;;;;;;;1.55;0.10;;;7.40;99.90;;;;;;5075930;28;20131;-23
2023/03/06 10:33:04;;;;;;;3.28;0.20;;;7.80;99.90;;;;;;5076064;28;20556;-23
2023/03/06 10:35:49;;;;;;;1.30;0.10;;;7.70;99.90;;;;;;5076036;28;20471;-22
2023/03/06 10:38:25;;;;;;;2.22;0.40;;;7.50;99.90;;;;;;5076723;28;20048;-22
2023/03/06 10:41:09;;;;;;;2.88;0.40;;;7.50;99.90;;;;;;5076453;28;20348;-22
2023/03/06 10:43:37;;;;;;;3.65;0.13;;;6.60;99.90;;;;;;5076608;28;20368;-22
2023/03/06 10:46:04;;;;;;;4.03;0.40;;;6.00;99.90;;;;;;5076030;28;20087;-22
2023/03/06 10:48:34;;;;;;;3.20;0.30;;;6.20;99.90;;;;;;5074731;28;20049;-22
2023/03/06 10:51:21;;;;;;;1.75;0.20;;;6.50;99.90;;;;;;5075643;28;20044;-22
2023/03/06 10:54:13;;;;;;;4.63;0.40;;;6.90;99.90;;;;;;5075618;28;20048;-22
2023/03/06 10:56:41;;;;;;;2.15;0.20;;;7.20;99.90;;;;;;5073399;28;20059;-22
2023/03/06 10:59:10;;;;;;;2.00;0.30;;;7.70;99.90;;;;;;5076096;28;20091;-22
2023/03/06 11:01:36;;;;;;;4.30;0.35;;;8.20;99.90;;;;;;5075498;28;20044;-22
2023/03/06 11:04:13;;;;;;;0.55;0.10;;;7.50;99.90;;;;;;5075428;28;20040;-21
2023/03/06 11:06:39;;;;;;;4.50;0.50;;;6.70;99.90;;;;;;5074552;28;20048;-22
2023/03/06 11:09:25;;;;;;;4.03;0.25;;;6.00;99.90;;;;;;5075860;28;20532;-21
2023/03/06 11:11:52;;;;;;;0.57;0.17;;;5.60;99.90;;;;;;5075155;28;20044;-21
2023/03/06 11:14:21;;;;;;;1.88;0.20;;;5.30;99.90;;;;;;5075237;28;20048;-21
2023/03/06 11:16:52;;;;;;;2.00;0.20;;;5.20;99.90;;;;;;5074977;28;20056;-21
2023/03/06 11:19:27;;;;;;;2.97;0.40;;;5.10;99.90;;;;;;5074795;28;20048;-22
2023/03/06 11:22:04;;;;;;;2.80;0.30;;;6.10;99.90;;;;;;5075012;28;20040;-22
2023/03/06 11:24:40;;;;;;;3.63;0.32;;;7.60;99.90;;;;;;5075027;28;20494;-22
2023/03/06 11:27:17;;;;;;;2.28;0.50;;;8.90;99.90;;;;;;5074990;28;20106;-22
2023/03/06 11:29:47;;;;;;;2.35;0.57;;;10.40;99.90;;;;;;5073703;28;20048;-22
2023/03/06 11:32:13;;;;;;;1.58;0.35;;;9.10;99.90;;;;;;5075608;28;20041;-22
2023/03/06 11:34:41;;;;;;;4.45;0.35;;;8.20;99.90;;;;;;5074167;28;20052;-21
2023/03/06 11:37:36;;;;;;;3.13;0.43;;;8.50;99.90;;;;;;5074772;28;20045;-21
2023/03/06 11:40:11;;;;;;;4.18;0.85;;;8.60;99.90;;;;;;5074695;28;20049;-22
2023/03/06 11:42:57;;;;;;;2.10;0.40;;;9.00;99.90;;;;;;5073394;28;20044;-21
2023/03/06 11:45:38;;;;;;;2.28;0.28;;;8.90;99.90;;;;;;5056719;28;20060;-21
2023/03/06 11:48:13;;;;;;;5.90;0.80;;;8.30;99.90;;;;;;5075429;28;20044;-21
2023/03/06 11:51:16;;;;;;;3.55;0.52;;;8.60;99.90;;;;;;5072799;28;20087;-21
2023/03/06 11:53:42;;;;;;;4.55;0.38;;;9.20;99.90;;;;;;5073274;28;20060;-21
2023/03/06 11:56:13;;;;;;;2.92;0.52;;;8.80;99.90;;;;;;5074653;28;20045;-21
2023/03/06 11:59:15;;;;;;;1.55;0.40;;;9.60;99.90;;;;;;5056717;28;20048;-21
2023/03/06 12:02:05;;;;;;;1.15;0.28;;;9.80;99.90;;;;;;5074594;28;20045;-21
2023/03/06 12:04:44;;;;;;;2.83;0.47;;;10.20;99.90;;;;;;5073309;28;20098;-21
2023/03/06 12:07:32;;;;;;;5.03;0.40;;;9.60;99.90;;;;;;5074134;28;20075;-21
2023/03/06 12:10:17;;;;;;;3.22;0.40;;;8.60;99.90;;;;;;5073058;28;20052;-22
2023/03/06 12:12:52;;;;;;;1.67;0.47;;;8.30;99.90;;;;;;5074194;28;20045;-21
2023/03/06 12:15:24;;;;;;;4.55;0.52;;;8.40;99.90;;;;;;5073793;28;20433;-21
2023/03/06 12:18:14;;;;;;;2.42;0.30;;;8.10;99.90;;;;;;5073695;28;20064;-21
2023/03/06 12:20:58;;;;;;;3.55;0.20;;;7.30;99.90;;;;;;5074802;28;20048;-21
2023/03/06 12:23:54;;;;;;;1.83;0.10;;;6.40;99.90;;;;;;5073712;28;20502;-22
2023/03/06 12:26:38;;;;;;;1.70;0.17;;;6.10;99.90;;;;;;5074233;28;20052;-21
2023/03/06 12:29:22;;;;;;;1.67;0.15;;;5.90;99.90;;;;;;5073950;28;20083;-21
2023/03/06 12:32:12;;;;;;;0.95;0.35;;;5.80;99.90;;;;;;5073818;28;20053;-21
2023/03/06 12:35:26;;;;;;;0.85;0.05;;;5.60;99.90;;;;;;5074439;28;20127;-21
2023/03/06 12:38:01;;;;;;;3.30;0.65;;;5.60;99.90;;;;;;5071413;28;20076;-21
2023/03/06 12:40:59;;;;;;;4.65;0.50;;;5.80;99.90;;;;;;5071803;28;20053;-21
2023/03/06 12:43:31;;;;;;;4.70;0.98;;;6.10;99.90;;;;;;5072365;28;20048;-21
2023/03/06 12:46:17;;;;;;;2.58;0.40;;;6.40;99.90;;;;;;5074842;28;20071;-21
2023/03/06 12:48:54;;;;;;;1.85;0.35;;;6.50;99.90;;;;;;5073995;28;20041;-21
2023/03/06 12:51:20;;;;;;;2.20;0.28;;;6.50;99.90;;;;;;5073653;28;20044;-21
2023/03/06 12:53:48;;;;;;;1.92;0.38;;;6.50;99.90;;;;;;5073875;28;20387;-21
2023/03/06 12:56:17;;;;;;;2.00;0.32;;;6.50;99.90;;;;;;5074342;28;20050;-22
2023/03/06 12:58:47;;;;;;;1.63;0.30;;;6.50;99.90;;;;;;5073560;28;20478;-22
2023/03/06 13:01:45;;;;;;;2.60;0.30;;;6.60;99.90;;;;;;5074368;28;20048;-22
2023/03/06 13:04:29;;;;;;;2.50;0.10;;;6.70;99.90;;;;;;5077664;28;20110;-22
2023/03/06 13:07:18;;;;;;;3.50;0.85;;;6.60;99.90;;;;;;5077842;28;20055;-21